Time;durP1;ratioP1;P1;durP2;ratioP2;P2;SDS_P1;SDS_P2;PMS_P1;PMS_P2;Temp;Humidity;BMP_temperature;BMP_pressure;BME280_temperature;BME280_humidity;BME280_pressure;Samples;Min_cycle;Max_cycle;Signal;HPM_P1;HPM_P2
2022/07/30 00:08:19;;;;;;;0.20;0.00;;;23.10;99.90;;;;;;25693552;23;20214;-69
2022/07/30 00:18:23;;;;;;;0.20;0.00;;;23.10;99.90;;;;;;25694518;23;20197;-70
2022/07/30 00:28:28;;;;;;;0.20;0.00;;;23.00;99.90;;;;;;25694168;23;20170;-69
2022/07/30 00:38:32;;;;;;;0.20;0.00;;;23.10;99.90;;;;;;25695753;23;20636;-68
2022/07/30 00:48:37;;;;;;;0.20;0.00;;;23.00;99.90;;;;;;25692598;23;20233;-69
2022/07/30 00:58:41;;;;;;;0.20;0.00;;;23.00;99.90;;;;;;25666775;23;20213;-70
2022/07/30 01:08:46;;;;;;;0.20;0.00;;;22.90;99.90;;;;;;25667227;23;20249;-69
2022/07/30 01:29:16;;;;;;;0.20;0.00;;;22.80;99.90;;;;;;25701016;23;20161;-69
2022/07/30 01:39:20;;;;;;;0.20;0.00;;;22.80;99.90;;;;;;25700373;23;20229;-69
2022/07/30 01:49:27;;;;;;;0.20;0.00;;;22.90;99.90;;;;;;25700146;23;20217;-70
2022/07/30 01:59:33;;;;;;;0.20;0.00;;;22.70;99.90;;;;;;25673699;23;20194;-69
2022/07/30 02:09:48;;;;;;;0.20;0.00;;;22.70;99.90;;;;;;25672966;23;20201;-69
2022/07/30 02:19:56;;;;;;;0.20;0.00;;;22.60;99.90;;;;;;25698284;23;20247;-70
2022/07/30 02:30:03;;;;;;;0.20;0.00;;;22.50;99.90;;;;;;25696575;23;20186;-69
2022/07/30 02:40:08;;;;;;;0.20;0.00;;;22.40;99.90;;;;;;25672213;23;20190;-70
2022/07/30 02:50:16;;;;;;;0.20;0.00;;;22.50;99.90;;;;;;25697396;23;20209;-69
2022/07/30 03:00:21;;;;;;;0.20;0.00;;;22.60;99.90;;;;;;25696933;23;20198;-69
2022/07/30 03:10:28;;;;;;;0.20;0.00;;;22.50;99.90;;;;;;25671582;23;20173;-69
2022/07/30 03:20:34;;;;;;;0.20;0.00;;;22.60;99.90;;;;;;25696763;23;20274;-70
2022/07/30 03:30:39;;;;;;;0.20;0.00;;;22.70;99.90;;;;;;25696068;23;20162;-69
2022/07/30 03:40:44;;;;;;;0.20;0.00;;;22.80;99.90;;;;;;25695594;23;20209;-70
2022/07/30 03:50:51;;;;;;;0.20;0.00;;;22.80;99.90;;;;;;25695564;23;20161;-70
2022/07/30 04:00:55;;;;;;;0.20;0.10;;;22.80;99.90;;;;;;25692187;23;20198;-70
2022/07/30 04:11:00;;;;;;;0.20;0.00;;;22.60;99.90;;;;;;25695126;23;20173;-69
2022/07/30 04:21:07;;;;;;;0.20;0.00;;;22.50;99.90;;;;;;25693604;23;20193;-69
2022/07/30 04:31:21;;;;;;;0.20;0.10;;;22.50;99.90;;;;;;25667296;23;20173;-69
2022/07/30 04:41:25;;;;;;;0.20;0.00;;;22.40;99.90;;;;;;25693125;23;20274;-68
2022/07/30 04:51:34;;;;;;;0.20;0.00;;;22.30;99.90;;;;;;25695408;23;20250;-69
2022/07/30 05:01:39;;;;;;;0.20;0.00;;;22.50;99.90;;;;;;25702177;23;20252;-70
2022/07/30 05:11:50;;;;;;;0.20;0.00;;;22.50;99.90;;;;;;25701585;23;20178;-70
2022/07/30 05:21:54;;;;;;;0.20;0.00;;;22.70;99.90;;;;;;25702058;23;20253;-69
2022/07/30 05:31:59;;;;;;;0.20;0.00;;;22.70;99.90;;;;;;25674748;23;20202;-69
2022/07/30 05:42:06;;;;;;;0.20;0.00;;;22.80;99.90;;;;;;25699840;23;20213;-70
2022/07/30 05:52:15;;;;;;;0.20;0.00;;;23.00;99.90;;;;;;25672239;23;20182;-68
2022/07/30 06:02:19;;;;;;;0.20;0.00;;;23.30;99.90;;;;;;25697831;23;20222;-69
2022/07/30 06:12:28;;;;;;;0.20;0.00;;;23.80;99.90;;;;;;25699581;23;20154;-68
2022/07/30 06:22:32;;;;;;;0.20;0.00;;;24.30;99.90;;;;;;25699070;23;20236;-69
2022/07/30 06:32:38;;;;;;;0.20;0.00;;;24.40;99.90;;;;;;25696734;23;20193;-68
2022/07/30 06:42:42;;;;;;;0.20;0.10;;;24.70;99.90;;;;;;25698123;23;20190;-69
2022/07/30 06:52:47;;;;;;;0.20;0.10;;;24.70;99.90;;;;;;25696428;23;20217;-70
2022/07/30 07:02:51;;;;;;;0.20;0.00;;;24.70;99.90;;;;;;25694731;23;20218;-70
2022/07/30 07:12:56;;;;;;;0.20;0.10;;;24.80;99.90;;;;;;25696547;23;20158;-70
2022/07/30 07:23:01;;;;;;;0.20;0.10;;;25.20;99.90;;;;;;25695624;23;20205;-69
2022/07/30 07:33:13;;;;;;;0.20;0.10;;;25.50;99.90;;;;;;25693544;23;20153;-70
2022/07/30 07:43:18;;;;;;;0.20;0.00;;;26.10;99.90;;;;;;25665592;23;20243;-70
2022/07/30 07:53:23;;;;;;;0.20;0.00;;;26.30;99.90;;;;;;25694919;23;20221;-69
2022/07/30 08:03:27;;;;;;;0.20;0.00;;;26.80;99.90;;;;;;25667032;23;20210;-71
2022/07/30 08:13:32;;;;;;;0.20;0.00;;;26.90;99.90;;;;;;25667732;23;20190;-70
2022/07/30 08:23:54;;;;;;;0.20;0.00;;;27.20;99.90;;;;;;25693261;23;20208;-68
2022/07/30 08:34:00;;;;;;;0.20;0.00;;;27.80;99.90;;;;;;25676341;23;20216;-68
2022/07/30 08:44:06;;;;;;;0.20;0.00;;;28.50;99.90;;;;;;25699110;23;20277;-69
2022/07/30 08:54:17;;;;;;;0.20;0.00;;;28.40;99.90;;;;;;25680726;23;20165;-68
2022/07/30 09:04:21;;;;;;;0.20;0.00;;;28.10;99.90;;;;;;25678327;23;20222;-68
2022/07/30 09:14:28;;;;;;;0.20;0.00;;;28.30;99.90;;;;;;25707460;23;20164;-69
2022/07/30 09:24:41;;;;;;;0.20;0.00;;;28.60;99.90;;;;;;25704605;23;20209;-70
2022/07/30 09:34:47;;;;;;;0.20;0.00;;;28.90;99.90;;;;;;25679717;23;20199;-69
2022/07/30 09:44:51;;;;;;;0.20;0.00;;;29.20;99.90;;;;;;25698713;23;20205;-68
2022/07/30 09:54:57;;;;;;;0.20;0.00;;;29.40;99.90;;;;;;25697212;23;20186;-69
2022/07/30 10:05:11;;;;;;;0.20;0.03;;;29.50;99.90;;;;;;25695725;23;20194;-69
2022/07/30 10:15:20;;;;;;;0.20;0.00;;;29.80;99.90;;;;;;25682955;23;20177;-70
2022/07/30 10:25:26;;;;;;;0.20;0.00;;;30.30;99.90;;;;;;25692356;23;20206;-68
2022/07/30 10:35:32;;;;;;;0.20;0.00;;;30.40;99.90;;;;;;25692537;23;20252;-68
2022/07/30 10:45:50;;;;;;;0.20;0.00;;;31.10;99.90;;;;;;25693194;23;20228;-72
2022/07/30 10:56:11;;;;;;;0.20;0.00;;;30.80;99.90;;;;;;25666619;23;20158;-70
2022/07/30 11:06:26;;;;;;;0.20;0.00;;;30.90;99.90;;;;;;25665547;23;20216;-69
2022/07/30 11:17:01;;;;;;;0.20;0.03;;;30.40;99.90;;;;;;25691903;23;20215;-69
2022/07/30 11:27:07;;;;;;;0.20;0.00;;;30.40;99.90;;;;;;25689468;23;20186;-68
2022/07/30 11:37:15;;;;;;;0.20;0.00;;;31.10;99.90;;;;;;25687753;23;20218;-71
2022/07/30 11:47:28;;;;;;;0.20;0.00;;;30.80;99.90;;;;;;25662393;23;20186;-70
2022/07/30 11:57:41;;;;;;;0.20;0.00;;;31.00;99.90;;;;;;25688097;23;20186;-70
2022/07/30 12:07:45;;;;;;;0.20;0.00;;;31.80;99.90;;;;;;25660180;23;20201;-70
2022/07/30 12:17:50;;;;;;;0.20;0.00;;;30.90;99.90;;;;;;25661153;23;20190;-69
2022/07/30 12:28:21;;;;;;;0.20;0.10;;;30.20;99.90;;;;;;25687154;23;20234;-69
2022/07/30 12:38:27;;;;;;;0.20;0.00;;;30.90;99.90;;;;;;25688609;23;20205;-71
2022/07/30 12:48:32;;;;;;;0.20;0.00;;;33.20;99.90;;;;;;25692633;23;20331;-73
2022/07/30 12:58:40;;;;;;;0.20;0.00;;;34.30;99.90;;;;;;25667623;23;20237;-72
2022/07/30 13:08:52;;;;;;;0.20;0.00;;;35.00;99.90;;;;;;25691138;23;20206;-71
2022/07/30 13:18:58;;;;;;;0.20;0.00;;;34.70;99.90;;;;;;25697769;23;20182;-71
2022/07/30 13:29:02;;;;;;;0.20;0.00;;;34.80;99.90;;;;;;25674122;23;20289;-71
2022/07/30 13:39:08;;;;;;;0.20;0.00;;;34.90;99.90;;;;;;25671019;23;20173;-70
2022/07/30 13:49:12;;;;;;;0.20;0.00;;;34.80;99.90;;;;;;25663736;23;20324;-71
2022/07/30 13:59:17;;;;;;;0.20;0.00;;;35.80;99.90;;;;;;25687878;23;20186;-69
2022/07/30 14:09:21;;;;;;;0.20;0.00;;;35.80;99.90;;;;;;25687758;23;20225;-71
2022/07/30 14:19:26;;;;;;;0.20;0.00;;;35.40;99.90;;;;;;25696217;23;20167;-70
2022/07/30 14:29:30;;;;;;;0.20;0.00;;;35.00;99.90;;;;;;25697470;23;20202;-70
2022/07/30 14:39:35;;;;;;;0.20;0.00;;;36.10;99.90;;;;;;25665256;23;20238;-71
2022/07/30 14:49:39;;;;;;;0.20;0.00;;;35.80;99.90;;;;;;25697115;23;20255;-68
2022/07/30 14:59:44;;;;;;;0.20;0.00;;;35.70;99.90;;;;;;25696521;23;20236;-70
2022/07/30 15:09:48;;;;;;;0.20;0.00;;;35.50;99.90;;;;;;25694790;23;20292;-69
2022/07/30 15:19:53;;;;;;;0.20;0.00;;;34.70;99.90;;;;;;25693862;23;20167;-70
2022/07/30 15:29:57;;;;;;;0.20;0.00;;;35.10;99.90;;;;;;25643609;23;20189;-71
2022/07/30 15:40:03;;;;;;;0.20;0.00;;;35.30;99.90;;;;;;25693991;23;20162;-69
2022/07/30 15:50:08;;;;;;;0.20;0.00;;;34.30;99.90;;;;;;25694016;23;20193;-69
2022/07/30 16:00:14;;;;;;;0.20;0.00;;;33.60;99.90;;;;;;25667290;23;20186;-69
2022/07/30 16:10:18;;;;;;;0.20;0.00;;;33.00;99.90;;;;;;25668659;23;20170;-70
2022/07/30 16:20:23;;;;;;;0.20;0.00;;;31.00;99.90;;;;;;25687098;23;20178;-70
2022/07/30 16:30:27;;;;;;;0.20;0.00;;;31.00;99.90;;;;;;25685038;23;20185;-70
2022/07/30 16:40:33;;;;;;;0.20;0.00;;;30.40;99.90;;;;;;25663865;23;20189;-69
2022/07/30 16:50:39;;;;;;;0.20;0.00;;;30.60;99.90;;;;;;25693466;23;20758;-70
2022/07/30 17:00:45;;;;;;;0.20;0.00;;;30.60;99.90;;;;;;25671192;23;20213;-69
2022/07/30 17:10:49;;;;;;;0.20;0.00;;;30.50;99.90;;;;;;25698826;23;20226;-70
2022/07/30 17:20:54;;;;;;;0.20;0.00;;;30.60;99.90;;;;;;25671651;23;20209;-69
2022/07/30 17:30:58;;;;;;;0.20;0.00;;;32.20;99.90;;;;;;25696792;23;20158;-67
2022/07/30 17:41:03;;;;;;;0.20;0.00;;;33.70;99.90;;;;;;25695630;23;20209;-71
2022/07/30 17:51:08;;;;;;;0.20;0.00;;;33.30;99.90;;;;;;25695780;23;20205;-70
2022/07/30 18:01:13;;;;;;;0.20;0.00;;;32.90;99.90;;;;;;25695264;23;20290;-70
2022/07/30 18:11:17;;;;;;;0.20;0.00;;;32.40;99.90;;;;;;25693385;23;20218;-67
2022/07/30 18:21:22;;;;;;;0.20;0.00;;;30.20;99.90;;;;;;25695472;23;20278;-71
2022/07/30 18:31:26;;;;;;;0.20;0.00;;;29.40;99.90;;;;;;25669402;23;20174;-71
2022/07/30 18:41:32;;;;;;;0.20;0.00;;;29.60;99.90;;;;;;25668423;23;20205;-70
2022/07/30 18:51:36;;;;;;;0.20;0.10;;;29.00;99.90;;;;;;25692975;23;20170;-70
2022/07/30 19:01:42;;;;;;;0.20;0.00;;;28.60;99.90;;;;;;25665392;23;20225;-70
2022/07/30 19:11:46;;;;;;;0.20;0.00;;;28.30;99.90;;;;;;25690594;23;20162;-70
2022/07/30 19:21:51;;;;;;;0.20;0.00;;;28.00;99.90;;;;;;25664825;23;20186;-69
2022/07/30 19:31:55;;;;;;;0.20;0.00;;;27.90;99.90;;;;;;25691886;23;20186;-69
2022/07/30 19:42:00;;;;;;;0.20;0.00;;;27.80;99.90;;;;;;25666351;23;20186;-70
2022/07/30 19:52:06;;;;;;;0.20;0.00;;;27.80;99.90;;;;;;25693179;23;20185;-71
2022/07/30 20:02:34;;;;;;;0.20;0.00;;;27.70;99.90;;;;;;25666597;23;20212;-70
2022/07/30 20:12:39;;;;;;;0.20;0.10;;;27.70;99.90;;;;;;25689832;23;20176;-71
2022/07/30 20:22:46;;;;;;;0.20;0.00;;;27.40;99.90;;;;;;25691654;23;20197;-71
2022/07/30 20:32:49;;;;;;;0.20;0.00;;;27.40;99.90;;;;;;25692076;23;20159;-71
2022/07/30 20:42:55;;;;;;;0.20;0.00;;;26.90;99.90;;;;;;25692180;23;20222;-70
2022/07/30 20:53:02;;;;;;;0.20;0.00;;;26.60;99.90;;;;;;25691449;23;20238;-71
2022/07/30 21:03:08;;;;;;;0.20;0.10;;;26.40;99.90;;;;;;25663955;23;20293;-70
2022/07/30 21:13:16;;;;;;;0.20;0.00;;;26.00;99.90;;;;;;25690384;23;20157;-70
2022/07/30 21:23:21;;;;;;;0.20;0.00;;;25.80;99.90;;;;;;25690477;23;20246;-71
2022/07/30 21:33:27;;;;;;;0.20;0.10;;;25.70;99.90;;;;;;25690867;23;20166;-67
2022/07/30 21:43:35;;;;;;;0.20;0.10;;;25.80;99.90;;;;;;25696893;23;20194;-68
2022/07/30 21:53:41;;;;;;;0.20;0.00;;;25.70;99.90;;;;;;25666542;23;20166;-69
2022/07/30 22:03:53;;;;;;;0.20;0.10;;;25.60;99.90;;;;;;25690241;23;20198;-67
2022/07/30 22:14:10;;;;;;;0.20;0.00;;;25.70;99.90;;;;;;25697429;23;20234;-69
2022/07/30 22:24:16;;;;;;;0.20;0.00;;;25.60;99.90;;;;;;25696843;23;20202;-70
2022/07/30 22:34:33;;;;;;;0.20;0.00;;;25.50;99.90;;;;;;25668148;23;20166;-68
2022/07/30 22:44:38;;;;;;;0.20;0.00;;;25.70;99.90;;;;;;25670347;23;20193;-68
2022/07/30 22:55:02;;;;;;;0.20;0.00;;;25.80;99.90;;;;;;25694986;23;20171;-69
2022/07/30 23:05:15;;;;;;;0.20;0.00;;;25.70;99.90;;;;;;25697202;23;20716;-69
2022/07/30 23:15:19;;;;;;;0.20;0.00;;;25.80;99.90;;;;;;25697705;23;20304;-69
2022/07/30 23:25:25;;;;;;;0.20;0.00;;;25.70;99.90;;;;;;25670701;23;20282;-69
2022/07/30 23:35:42;;;;;;;0.20;0.10;;;25.90;99.90;;;;;;25697028;23;20161;-69
2022/07/30 23:45:47;;;;;;;0.20;0.00;;;26.10;99.90;;;;;;25670379;23;20217;-69
2022/07/30 23:55:52;;;;;;;0.20;0.10;;;26.20;99.90;;;;;;25696000;23;20251;-69
